Time;durP1;ratioP1;P1;durP2;ratioP2;P2;SDS_P1;SDS_P2;PMS_P1;PMS_P2;Temp;Humidity;BMP_temperature;BMP_pressure;BME280_temperature;BME280_humidity;BME280_pressure;Samples;Min_cycle;Max_cycle;Signal;HPM_P1;HPM_P2
2022/12/29 00:00:06;;;;;;;11.35;5.20;;;0.70;99.90;;;;;;5070810;28;20090;-60
2022/12/29 00:02:40;;;;;;;13.73;6.53;;;0.70;99.90;;;;;;5068359;28;20040;-58
2022/12/29 00:05:07;;;;;;;10.20;5.75;;;0.70;99.90;;;;;;5068623;28;20412;-59
2022/12/29 00:07:34;;;;;;;11.57;6.35;;;0.80;99.90;;;;;;5067693;28;20086;-61
2022/12/29 00:10:01;;;;;;;16.55;7.35;;;0.80;99.90;;;;;;5070048;28;20086;-61
2022/12/29 00:15:36;;;;;;;20.00;7.35;;;0.80;99.90;;;;;;5068143;28;20098;-61
2022/12/29 00:17:59;;;;;;;10.77;5.78;;;0.70;99.90;;;;;;5069618;28;20054;-61
2022/12/29 00:37:10;;;;;;;13.98;6.88;;;0.50;99.90;;;;;;5067819;28;20040;-61
2022/12/29 00:45:27;;;;;;;17.90;7.78;;;0.50;99.90;;;;;;4989435;28;20046;-61
2022/12/29 00:47:53;;;;;;;13.90;5.45;;;0.60;99.90;;;;;;4988830;28;20100;-61
2022/12/29 00:50:20;;;;;;;17.27;7.38;;;0.60;99.90;;;;;;5020677;28;20087;-59
2022/12/29 00:52:48;;;;;;;15.18;6.00;;;0.60;99.90;;;;;;5067237;28;20566;-59
2022/12/29 00:55:15;;;;;;;13.75;5.20;;;0.50;99.90;;;;;;5051572;28;20090;-61
2022/12/29 00:57:44;;;;;;;11.40;5.63;;;0.50;99.90;;;;;;5048457;28;20040;-60
2022/12/29 01:00:11;;;;;;;16.38;6.03;;;0.50;99.90;;;;;;5065483;28;20397;-61
2022/12/29 01:02:38;;;;;;;;;;;0.60;99.90;;;;;;5040709;28;20102;-61
2022/12/29 01:05:05;;;;;;;15.93;6.47;;;0.50;99.90;;;;;;5060397;28;19920;-61
2022/12/29 01:07:32;;;;;;;14.05;6.22;;;0.50;99.90;;;;;;5059583;28;20537;-62
2022/12/29 01:10:09;;;;;;;13.75;5.95;;;0.50;99.90;;;;;;5048205;28;20040;-59
2022/12/29 01:12:44;;;;;;;13.38;5.85;;;0.40;99.90;;;;;;5060367;28;20094;-62
2022/12/29 01:15:14;;;;;;;11.90;6.13;;;0.40;99.90;;;;;;5047187;28;20044;-61
2022/12/29 01:17:41;;;;;;;13.15;6.47;;;0.50;99.90;;;;;;5048604;28;20071;-61
2022/12/29 01:20:08;;;;;;;14.20;6.35;;;0.50;99.90;;;;;;5064983;28;20025;-61
2022/12/29 01:22:35;;;;;;;;;;;0.40;99.90;;;;;;5059933;28;20045;-61
2022/12/29 01:25:03;;;;;;;11.70;5.90;;;0.40;99.90;;;;;;5061034;28;19920;-61
2022/12/29 01:27:30;;;;;;;12.23;6.05;;;0.40;99.90;;;;;;5049351;28;20056;-61
2022/12/29 01:29:57;;;;;;;13.93;6.40;;;0.40;99.90;;;;;;5044221;28;20745;-61
2022/12/29 01:32:24;;;;;;;11.80;6.07;;;0.40;99.90;;;;;;5060661;28;20045;-61
2022/12/29 01:34:50;;;;;;;12.40;6.20;;;0.40;99.90;;;;;;5056225;28;20390;-61
2022/12/29 01:37:17;;;;;;;11.88;5.75;;;0.40;99.90;;;;;;5047371;28;20044;-61
2022/12/29 01:39:44;;;;;;;17.95;6.45;;;0.30;99.90;;;;;;5058736;28;20102;-61
2022/12/29 01:42:22;;;;;;;12.00;6.15;;;0.30;99.90;;;;;;5038579;28;20113;-61
2022/12/29 01:44:51;;;;;;;11.48;5.78;;;0.30;99.90;;;;;;5049224;28;20049;-61
2022/12/29 01:47:38;;;;;;;13.93;5.93;;;0.30;99.90;;;;;;5061370;28;20049;-60
2022/12/29 01:50:17;;;;;;;12.75;6.18;;;0.30;99.90;;;;;;5062960;28;20044;-61
2022/12/29 01:52:54;;;;;;;12.15;5.60;;;0.30;99.90;;;;;;5061595;28;20055;-60
2022/12/29 01:55:22;;;;;;;10.60;5.57;;;0.30;99.90;;;;;;5048046;28;20044;-62
2022/12/29 01:57:52;;;;;;;12.02;6.20;;;0.20;99.90;;;;;;5062949;28;20489;-61
2022/12/29 02:00:19;;;;;;;11.95;5.45;;;0.20;99.90;;;;;;5071837;28;20358;-61
2022/12/29 02:02:52;;;;;;;11.00;5.78;;;0.30;99.90;;;;;;5071000;28;20048;-61
2022/12/29 02:05:34;;;;;;;12.18;5.97;;;0.20;99.90;;;;;;5064303;28;20118;-61
2022/12/29 02:08:01;;;;;;;11.35;5.65;;;0.20;99.90;;;;;;5058342;28;20094;-61
2022/12/29 02:10:31;;;;;;;13.98;6.43;;;0.20;99.90;;;;;;5056000;28;20101;-61
2022/12/29 02:12:58;;;;;;;12.00;5.68;;;0.20;99.90;;;;;;5042063;28;20814;-61
2022/12/29 02:15:53;;;;;;;9.48;5.90;;;0.20;99.90;;;;;;5065133;28;20111;-61
2022/12/29 02:18:33;;;;;;;15.20;5.97;;;0.20;99.90;;;;;;5047399;28;20059;-61
2022/12/29 02:21:21;;;;;;;13.60;5.32;;;0.20;99.90;;;;;;5074211;28;20086;-61
2022/12/29 02:24:12;;;;;;;11.00;5.90;;;0.30;99.90;;;;;;5055982;28;20048;-61
2022/12/29 02:26:57;;;;;;;9.57;5.32;;;0.30;99.90;;;;;;5071533;28;20566;-61
2022/12/29 02:29:54;;;;;;;16.48;6.07;;;0.30;99.90;;;;;;5050287;28;20059;-61
2022/12/29 02:32:50;;;;;;;10.45;4.95;;;0.20;99.90;;;;;;5056027;28;20045;-61
2022/12/29 02:35:39;;;;;;;13.32;5.93;;;0.20;99.90;;;;;;5024899;28;20068;-61
2022/12/29 02:38:37;;;;;;;12.18;5.43;;;0.10;99.90;;;;;;5035449;28;20041;-61
2022/12/29 02:41:47;;;;;;;11.27;6.03;;;0.10;99.90;;;;;;5037740;28;20045;-61
2022/12/29 02:44:31;;;;;;;11.75;6.35;;;0.10;99.90;;;;;;5044850;28;20041;-61
2022/12/29 02:47:14;;;;;;;14.20;5.65;;;0.10;99.90;;;;;;5064555;28;20043;-59
2022/12/29 02:49:53;;;;;;;16.00;5.80;;;0.00;99.90;;;;;;5053531;28;20045;-61
2022/12/29 02:52:27;;;;;;;12.10;6.30;;;0.00;99.90;;;;;;5062783;28;20101;-61
2022/12/29 02:54:55;;;;;;;11.52;5.85;;;0.00;99.90;;;;;;5116577;22;20517;-60
2022/12/29 02:57:21;;;;;;;10.25;5.05;;;0.00;99.90;;;;;;5146263;27;20047;-60
2022/12/29 02:59:54;;;;;;;6.22;4.20;;;0.00;99.90;;;;;;5155203;27;20106;-60
2022/12/29 03:02:26;;;;;;;11.13;5.88;;;0.00;99.90;;;;;;5126053;27;20452;-60
2022/12/29 03:05:23;;;;;;;10.13;4.93;;;0.00;99.90;;;;;;5137396;27;20050;-62
2022/12/29 03:08:03;;;;;;;12.07;5.60;;;0.00;99.90;;;;;;5153206;27;20147;-60
2022/12/29 03:10:54;;;;;;;13.65;5.53;;;0.10;99.90;;;;;;5154685;27;20065;-61
2022/12/29 03:16:45;;;;;;;12.88;5.50;;;0.10;99.90;;;;;;5134746;27;20413;-60
2022/12/29 03:19:30;;;;;;;10.13;5.25;;;0.10;99.90;;;;;;5118821;27;20039;-62
2022/12/29 03:25:01;;;;;;;12.35;5.60;;;0.00;99.90;;;;;;5130768;27;20658;-60
2022/12/29 03:27:32;;;;;;;10.43;5.15;;;0.00;99.90;;;;;;5151531;27;20062;-60
2022/12/29 03:30:03;;;;;;;10.55;5.00;;;0.00;99.90;;;;;;5135857;27;20070;-60
2022/12/29 03:32:41;;;;;;;12.27;5.97;;;-0.10;99.90;;;;;;5133269;27;20043;-61
2022/12/29 03:35:13;;;;;;;7.47;4.22;;;-0.10;99.90;;;;;;5115676;27;20143;-60
2022/12/29 03:37:49;;;;;;;13.98;5.82;;;0.00;99.90;;;;;;5131901;27;20032;-62
2022/12/29 03:40:18;;;;;;;13.35;5.82;;;0.00;99.90;;;;;;5133000;27;20043;-60
2022/12/29 03:42:47;;;;;;;11.20;5.57;;;0.00;99.90;;;;;;5130873;27;20130;-60
2022/12/29 03:45:14;;;;;;;9.43;5.05;;;0.00;99.90;;;;;;5135959;27;20043;-59
2022/12/29 03:47:41;;;;;;;12.85;5.18;;;0.00;99.90;;;;;;5136077;27;20137;-60
2022/12/29 03:50:08;;;;;;;8.73;5.30;;;-0.10;99.90;;;;;;5128629;27;20043;-60
2022/12/29 03:52:39;;;;;;;12.68;6.03;;;-0.10;99.90;;;;;;5114871;27;20043;-60
2022/12/29 03:55:06;;;;;;;11.20;4.80;;;0.00;99.90;;;;;;5133212;27;20027;-62
2022/12/29 03:57:33;;;;;;;8.25;4.72;;;0.00;99.90;;;;;;5119804;27;20128;-60
2022/12/29 04:00:05;;;;;;;10.40;5.03;;;-0.10;99.90;;;;;;5127261;27;20038;-60
2022/12/29 04:02:41;;;;;;;11.70;4.43;;;-0.10;99.90;;;;;;5150743;27;20126;-60
2022/12/29 04:05:12;;;;;;;11.38;4.50;;;-0.10;99.90;;;;;;5129910;27;20065;-60
2022/12/29 04:07:39;;;;;;;10.60;5.38;;;-0.10;99.90;;;;;;5132429;27;20126;-62
2022/12/29 04:10:07;;;;;;;11.15;5.20;;;0.00;99.90;;;;;;5114285;27;20062;-60
2022/12/29 04:12:34;;;;;;;12.98;5.30;;;0.00;99.90;;;;;;5113544;27;20149;-62
2022/12/29 04:15:01;;;;;;;9.68;4.85;;;0.00;99.90;;;;;;5114886;27;20096;-60
2022/12/29 04:17:28;;;;;;;;;;;0.00;99.90;;;;;;5125759;27;20054;-59
2022/12/29 04:20:59;;;;;;;10.40;4.60;;;0.00;99.90;;;;;;5140130;27;19924;-60
2022/12/29 04:22:42;;;;;;;8.15;4.10;;;0.00;99.90;;;;;;5114200;27;20059;-60
2022/12/29 04:25:09;;;;;;;7.80;4.15;;;0.00;99.90;;;;;;5151583;27;20046;-62
2022/12/29 04:27:37;;;;;;;8.50;3.88;;;0.00;99.90;;;;;;5152318;27;20470;-60
2022/12/29 04:30:39;;;;;;;5.88;3.65;;;0.10;99.90;;;;;;5152554;27;20066;-62
2022/12/29 04:33:13;;;;;;;9.43;3.80;;;0.20;99.90;;;;;;5139188;27;20115;-62
2022/12/29 04:35:43;;;;;;;6.68;3.17;;;0.40;99.90;;;;;;5123105;27;20039;-62
2022/12/29 04:38:11;;;;;;;6.95;3.78;;;0.40;99.90;;;;;;5131672;27;20046;-62
2022/12/29 04:40:40;;;;;;;6.22;3.42;;;0.40;99.90;;;;;;5124656;27;20043;-62
2022/12/29 04:43:09;;;;;;;6.63;3.53;;;0.40;99.90;;;;;;5120222;27;20058;-62
2022/12/29 04:45:56;;;;;;;7.43;3.42;;;0.40;99.90;;;;;;5100311;27;20055;-62
2022/12/29 04:48:35;;;;;;;8.80;4.25;;;0.40;99.90;;;;;;5131635;27;20065;-62
2022/12/29 04:51:13;;;;;;;7.70;4.20;;;0.30;99.90;;;;;;5141332;27;20454;-62
2022/12/29 04:53:41;;;;;;;8.75;3.88;;;0.30;99.90;;;;;;5132182;27;20039;-62
2022/12/29 04:56:08;;;;;;;7.10;3.50;;;0.30;99.90;;;;;;5152212;27;20046;-62
2022/12/29 04:58:36;;;;;;;5.25;3.10;;;0.30;99.90;;;;;;5126660;27;20042;-61
2022/12/29 05:01:04;;;;;;;10.15;3.63;;;0.30;99.90;;;;;;5127782;27;20042;-62
2022/12/29 05:03:31;;;;;;;7.70;3.60;;;0.20;99.90;;;;;;5128911;27;20499;-62
2022/12/29 05:05:58;;;;;;;7.60;3.60;;;0.20;99.90;;;;;;5121833;27;20042;-61
2022/12/29 05:08:26;;;;;;;8.60;3.70;;;0.20;99.90;;;;;;5150150;27;20070;-61
2022/12/29 05:10:57;;;;;;;6.68;3.50;;;0.30;99.90;;;;;;5133361;27;20100;-62
2022/12/29 05:13:24;;;;;;;7.32;4.05;;;0.30;99.90;;;;;;5134060;27;20521;-62
2022/12/29 05:15:52;;;;;;;9.88;4.28;;;0.40;99.90;;;;;;5126028;27;20039;-62
2022/12/29 05:18:21;;;;;;;10.90;3.85;;;0.40;99.90;;;;;;5125364;27;20041;-62
2022/12/29 05:20:49;;;;;;;5.93;3.53;;;0.40;99.90;;;;;;5152030;27;20034;-61
2022/12/29 05:23:18;;;;;;;8.40;4.05;;;0.30;99.90;;;;;;5146385;27;20503;-61
2022/12/29 05:25:53;;;;;;;9.55;3.70;;;0.30;99.90;;;;;;5126141;27;20043;-62
2022/12/29 05:28:30;;;;;;;8.07;4.13;;;0.40;99.90;;;;;;5129651;27;20092;-62
2022/12/29 05:31:02;;;;;;;8.85;4.13;;;0.40;99.90;;;;;;5118362;28;20035;-62
2022/12/29 05:33:30;;;;;;;8.27;4.32;;;0.50;99.90;;;;;;5126055;28;20496;-61
2022/12/29 05:35:57;;;;;;;8.35;4.10;;;0.40;99.90;;;;;;5116760;27;20042;-61
2022/12/29 05:38:23;;;;;;;9.32;3.80;;;0.40;99.90;;;;;;5133718;27;20693;-61
2022/12/29 05:40:50;;;;;;;15.07;4.68;;;0.50;99.90;;;;;;5143422;27;20038;-61
2022/12/29 05:43:52;;;;;;;15.88;5.20;;;0.60;99.90;;;;;;5087476;28;20058;-61
2022/12/29 05:46:51;;;;;;;13.35;5.97;;;0.70;99.90;;;;;;5105846;27;20466;-62
2022/12/29 05:49:42;;;;;;;8.90;4.57;;;0.80;99.90;;;;;;5132739;27;20053;-61
2022/12/29 05:52:20;;;;;;;9.23;4.88;;;0.90;99.90;;;;;;5150634;27;20499;-61
2022/12/29 05:54:46;;;;;;;6.75;4.30;;;0.90;99.90;;;;;;5140164;27;20155;-61
2022/12/29 05:57:17;;;;;;;10.52;4.88;;;0.90;99.90;;;;;;5135452;27;20043;-62
2022/12/29 05:59:48;;;;;;;12.25;6.60;;;0.90;99.90;;;;;;5129852;27;20042;-62
2022/12/29 06:02:15;;;;;;;10.27;5.93;;;0.90;99.90;;;;;;5143644;27;20069;-62
2022/12/29 06:04:43;;;;;;;9.00;4.65;;;0.90;99.90;;;;;;5150591;27;20054;-61
2022/12/29 06:07:09;;;;;;;8.05;3.50;;;0.90;99.90;;;;;;5126470;27;20069;-61
2022/12/29 06:09:42;;;;;;;8.73;4.47;;;0.90;99.90;;;;;;5126455;27;20425;-61
2022/12/29 06:12:09;;;;;;;10.77;5.80;;;0.90;99.90;;;;;;5122303;27;20487;-61
2022/12/29 06:14:38;;;;;;;7.35;4.57;;;0.90;99.90;;;;;;5129930;27;20137;-61
2022/12/29 06:17:05;;;;;;;;;;;0.90;99.90;;;;;;5113506;28;20507;-61
2022/12/29 06:19:33;;;;;;;8.73;4.82;;;0.90;99.90;;;;;;5133306;27;19923;-61
2022/12/29 06:22:00;;;;;;;10.52;5.10;;;0.90;99.90;;;;;;5125637;28;20036;-61
2022/12/29 06:24:27;;;;;;;10.88;5.78;;;0.90;99.90;;;;;;5112972;28;20092;-61
2022/12/29 06:26:54;;;;;;;8.82;4.30;;;0.90;99.90;;;;;;5111835;28;20522;-61
2022/12/29 06:29:21;;;;;;;7.40;4.07;;;1.00;99.90;;;;;;5113299;28;20044;-62
2022/12/29 06:31:49;;;;;;;10.35;3.92;;;0.90;99.90;;;;;;5132439;27;20430;-61
2022/12/29 06:34:15;;;;;;;8.35;4.25;;;0.90;99.90;;;;;;5136112;27;20043;-62
2022/12/29 06:36:42;;;;;;;9.25;4.05;;;0.90;99.90;;;;;;5133714;27;20495;-61
2022/12/29 06:39:10;;;;;;;7.93;4.50;;;0.90;99.90;;;;;;5133619;27;20043;-61
2022/12/29 06:41:37;;;;;;;12.10;4.88;;;0.80;99.90;;;;;;5126762;27;20091;-61
2022/12/29 06:44:39;;;;;;;7.57;3.55;;;0.80;99.90;;;;;;5133808;27;20051;-61
2022/12/29 06:47:09;;;;;;;8.52;3.80;;;0.70;99.90;;;;;;5155431;27;20087;-60
2022/12/29 06:49:36;;;;;;;6.75;3.53;;;0.70;99.90;;;;;;5153099;27;20095;-61
2022/12/29 06:52:04;;;;;;;7.40;3.35;;;0.70;99.90;;;;;;5147678;27;20502;-61
2022/12/29 06:54:38;;;;;;;6.95;3.40;;;0.70;99.90;;;;;;5155414;27;20387;-61
2022/12/29 06:57:05;;;;;;;6.45;3.15;;;0.60;99.90;;;;;;5155495;27;20065;-61
2022/12/29 06:59:31;;;;;;;12.13;3.58;;;0.60;99.90;;;;;;5143212;27;20043;-61
2022/12/29 07:01:58;;;;;;;6.00;2.85;;;0.70;99.90;;;;;;5134241;27;20068;-61
2022/12/29 07:04:25;;;;;;;7.05;3.42;;;0.70;99.90;;;;;;5141201;27;20047;-62
2022/12/29 07:06:52;;;;;;;5.22;2.55;;;0.80;99.90;;;;;;5145718;27;20070;-61
2022/12/29 07:09:19;;;;;;;5.15;2.60;;;0.80;99.90;;;;;;5154474;27;20099;-62
2022/12/29 07:11:46;;;;;;;5.78;2.92;;;0.70;99.90;;;;;;5133888;27;20051;-62
2022/12/29 07:14:13;;;;;;;10.65;3.90;;;0.80;99.90;;;;;;5148389;27;20027;-61
2022/12/29 07:16:39;;;;;;;7.60;3.58;;;0.80;99.90;;;;;;5154894;27;20034;-61
2022/12/29 07:19:06;;;;;;;12.02;5.05;;;0.80;99.90;;;;;;5144591;27;20557;-62
2022/12/29 07:21:33;;;;;;;6.95;3.20;;;0.80;99.90;;;;;;5142376;27;20035;-62
2022/12/29 07:23:59;;;;;;;11.02;3.13;;;0.80;99.90;;;;;;5132832;27;20039;-61
2022/12/29 07:26:26;;;;;;;3.72;2.47;;;0.90;99.90;;;;;;5150842;27;20046;-61
2022/12/29 07:29:02;;;;;;;5.13;2.78;;;1.00;99.90;;;;;;5153261;27;20089;-61
2022/12/29 07:31:29;;;;;;;6.05;2.78;;;1.30;99.90;;;;;;5154235;27;20087;-61
2022/12/29 07:33:56;;;;;;;5.20;2.13;;;1.50;99.90;;;;;;5151922;27;20085;-62
2022/12/29 07:36:22;;;;;;;3.63;2.60;;;1.70;99.90;;;;;;5141351;27;20126;-61
2022/12/29 07:38:55;;;;;;;7.88;3.15;;;1.60;99.90;;;;;;5134107;27;20047;-62
2022/12/29 07:41:21;;;;;;;8.45;3.33;;;1.60;99.90;;;;;;5141603;27;20035;-61
2022/12/29 07:43:48;;;;;;;6.03;3.10;;;1.60;99.90;;;;;;5125240;27;20465;-61
2022/12/29 07:46:41;;;;;;;8.68;3.90;;;1.60;99.90;;;;;;5137537;27;20058;-61
2022/12/29 07:49:22;;;;;;;5.25;2.65;;;1.60;99.90;;;;;;5145701;27;20047;-61
2022/12/29 07:51:49;;;;;;;8.60;3.55;;;1.60;99.90;;;;;;5153027;27;20043;-61
2022/12/29 07:54:18;;;;;;;7.68;3.50;;;1.60;99.90;;;;;;5152736;27;20134;-62
2022/12/29 07:56:45;;;;;;;8.00;3.78;;;1.60;99.90;;;;;;5121486;27;20449;-61
2022/12/29 07:59:12;;;;;;;;;;;1.60;99.90;;;;;;5138757;27;20120;-61
2022/12/29 08:01:39;;;;;;;10.10;4.20;;;1.60;99.90;;;;;;5144883;27;19923;-61
2022/12/29 08:04:06;;;;;;;9.20;3.65;;;1.60;99.90;;;;;;5152604;27;20091;-61
2022/12/29 08:06:33;;;;;;;8.40;4.32;;;1.60;99.90;;;;;;5136357;27;20047;-61
2022/12/29 08:09:00;;;;;;;6.57;3.28;;;1.60;99.90;;;;;;5153456;27;20093;-61
2022/12/29 08:11:40;;;;;;;8.80;3.97;;;1.60;99.90;;;;;;5149866;27;20040;-61
2022/12/29 08:14:07;;;;;;;6.78;3.60;;;1.60;99.90;;;;;;5144400;27;20063;-61
2022/12/29 08:16:34;;;;;;;8.38;2.63;;;1.60;99.90;;;;;;5141909;27;20063;-61
2022/12/29 08:19:01;;;;;;;;;;;1.70;99.90;;;;;;5143198;27;20043;-61
2022/12/29 08:21:28;;;;;;;7.43;4.10;;;1.80;99.90;;;;;;5140188;27;19940;-61
2022/12/29 08:23:55;;;;;;;12.45;4.90;;;1.80;99.90;;;;;;5140927;27;20043;-61
2022/12/29 08:26:22;;;;;;;11.15;4.55;;;1.90;99.90;;;;;;5140150;27;20039;-61
2022/12/29 08:28:52;;;;;;;11.43;5.35;;;2.00;99.90;;;;;;5125727;27;20489;-61
2022/12/29 08:31:19;;;;;;;8.55;4.80;;;2.10;99.90;;;;;;5148183;27;20035;-62
2022/12/29 08:33:46;;;;;;;9.88;4.88;;;2.10;99.90;;;;;;5153228;27;20074;-61
2022/12/29 08:36:13;;;;;;;9.40;4.30;;;2.20;99.90;;;;;;5148717;27;20035;-61
2022/12/29 08:38:39;;;;;;;9.65;4.43;;;2.30;99.90;;;;;;5151027;27;20042;-61
2022/12/29 08:41:06;;;;;;;8.95;3.63;;;2.30;99.90;;;;;;5131165;27;20511;-62
2022/12/29 08:43:33;;;;;;;12.65;4.47;;;2.30;99.90;;;;;;5131491;27;20047;-61
2022/12/29 08:46:00;;;;;;;11.85;4.50;;;2.30;99.90;;;;;;5132397;27;20070;-61
2022/12/29 08:48:27;;;;;;;6.47;3.80;;;2.50;99.90;;;;;;5121863;27;20049;-61
2022/12/29 08:50:54;;;;;;;5.03;2.88;;;2.80;99.90;;;;;;5153373;27;20035;-61
2022/12/29 08:53:21;;;;;;;8.25;4.00;;;3.00;99.90;;;;;;5148034;27;20046;-62
2022/12/29 08:55:55;;;;;;;10.00;3.45;;;3.30;99.90;;;;;;5152786;27;20042;-62
2022/12/29 08:58:32;;;;;;;11.38;5.80;;;3.50;99.90;;;;;;5151930;27;20463;-61
2022/12/29 09:00:59;;;;;;;11.32;4.80;;;3.60;99.90;;;;;;5147816;27;20121;-61
2022/12/29 09:03:26;;;;;;;7.30;4.07;;;3.80;99.90;;;;;;5151279;27;20043;-62
2022/12/29 09:06:15;;;;;;;8.13;3.80;;;3.80;99.90;;;;;;5144808;27;20045;-62
2022/12/29 09:08:42;;;;;;;8.55;3.78;;;4.00;99.90;;;;;;5131925;27;20088;-62
2022/12/29 09:11:10;;;;;;;;;;;4.10;99.90;;;;;;5131994;27;20066;-61
2022/12/29 09:13:37;;;;;;;9.10;4.03;;;4.40;99.90;;;;;;5131796;27;19919;-61
2022/12/29 09:16:05;;;;;;;10.38;3.80;;;4.60;99.90;;;;;;5131949;27;20246;-62
2022/12/29 09:18:32;;;;;;;8.48;3.42;;;4.80;99.90;;;;;;5140469;27;20039;-61
2022/12/29 09:21:00;;;;;;;;;;;5.10;99.90;;;;;;5132789;27;20123;-62
2022/12/29 09:23:28;;;;;;;6.22;3.50;;;5.20;99.90;;;;;;5134537;27;19948;-62
2022/12/29 09:25:54;;;;;;;7.22;3.53;;;5.40;99.90;;;;;;5152517;27;20042;-61
2022/12/29 09:28:22;;;;;;;9.40;3.60;;;5.40;99.90;;;;;;5152303;27;20046;-62
2022/12/29 09:30:49;;;;;;;6.50;3.20;;;5.60;99.90;;;;;;5152896;27;20121;-61
2022/12/29 09:33:17;;;;;;;6.20;2.67;;;5.60;99.90;;;;;;5146724;27;20546;-62
2022/12/29 09:35:49;;;;;;;5.60;2.78;;;5.70;99.90;;;;;;5150883;27;20099;-62
2022/12/29 09:38:16;;;;;;;5.20;2.72;;;5.90;99.90;;;;;;5152315;27;20620;-61
2022/12/29 09:40:51;;;;;;;10.23;2.50;;;6.10;99.90;;;;;;5152897;27;20050;-60
2022/12/29 09:43:36;;;;;;;6.18;2.40;;;6.30;99.90;;;;;;5150229;27;20035;-61
2022/12/29 09:46:15;;;;;;;5.78;2.40;;;6.40;99.90;;;;;;5140008;27;20036;-60
2022/12/29 09:48:47;;;;;;;4.35;2.20;;;6.50;99.90;;;;;;5148829;27;20051;-60
2022/12/29 09:51:17;;;;;;;4.35;2.00;;;6.60;99.90;;;;;;5131337;27;20504;-60
2022/12/29 09:53:51;;;;;;;4.72;1.98;;;6.60;99.90;;;;;;5140064;27;20039;-60
2022/12/29 09:56:21;;;;;;;4.00;1.77;;;6.70;99.90;;;;;;5139033;27;20035;-60
2022/12/29 09:59:07;;;;;;;4.03;2.17;;;6.70;99.90;;;;;;5149804;27;20532;-60
2022/12/29 10:01:44;;;;;;;5.50;2.22;;;6.80;99.90;;;;;;5141207;27;20043;-60
2022/12/29 10:04:11;;;;;;;5.35;1.88;;;6.90;99.90;;;;;;5138222;27;20058;-60
2022/12/29 10:07:05;;;;;;;3.80;1.77;;;6.90;99.90;;;;;;5131505;27;20552;-61
2022/12/29 10:10:14;;;;;;;5.60;2.35;;;6.90;99.90;;;;;;5137494;27;20614;-60
2022/12/29 10:13:08;;;;;;;6.15;2.20;;;6.80;99.90;;;;;;5138818;27;20466;-60
2022/12/29 10:15:59;;;;;;;5.43;2.97;;;6.70;99.90;;;;;;5145846;27;20051;-60
2022/12/29 10:19:04;;;;;;;5.55;3.15;;;6.70;99.90;;;;;;5140740;27;20039;-60
2022/12/29 10:21:57;;;;;;;4.97;2.63;;;6.60;99.90;;;;;;5135176;27;20403;-60
2022/12/29 10:24:26;;;;;;;4.20;2.60;;;6.60;99.90;;;;;;5133932;27;20086;-60
2022/12/29 10:26:56;;;;;;;5.82;2.67;;;6.60;99.90;;;;;;5140131;27;20051;-60
2022/12/29 10:29:37;;;;;;;3.58;2.17;;;6.60;99.90;;;;;;5139607;27;20047;-60
2022/12/29 10:32:36;;;;;;;5.85;2.92;;;6.60;99.90;;;;;;5136089;27;20039;-60
2022/12/29 10:35:18;;;;;;;4.43;2.17;;;6.70;99.90;;;;;;5131547;27;20051;-60
2022/12/29 10:37:59;;;;;;;8.38;2.85;;;6.70;99.90;;;;;;5134686;27;20269;-60
2022/12/29 10:40:33;;;;;;;5.05;2.22;;;6.70;99.90;;;;;;5139601;27;20510;-60
2022/12/29 10:43:04;;;;;;;5.25;2.25;;;6.80;99.90;;;;;;5138036;27;20583;-60
2022/12/29 10:45:33;;;;;;;3.22;2.00;;;6.80;99.90;;;;;;5133923;27;20105;-60
2022/12/29 10:48:11;;;;;;;5.40;2.42;;;6.90;99.90;;;;;;5122345;27;20050;-59
2022/12/29 10:50:42;;;;;;;3.15;2.25;;;6.90;99.90;;;;;;5140075;27;20123;-60
2022/12/29 10:53:18;;;;;;;5.97;2.15;;;6.90;99.90;;;;;;5144141;27;20043;-60
2022/12/29 10:55:46;;;;;;;4.82;1.80;;;6.90;99.90;;;;;;5146766;27;20039;-59
2022/12/29 10:58:14;;;;;;;6.65;2.85;;;7.00;99.90;;;;;;5143571;27;20042;-60
2022/12/29 11:00:48;;;;;;;3.05;1.77;;;7.20;99.90;;;;;;5143365;27;20574;-60
2022/12/29 11:03:30;;;;;;;3.00;1.70;;;7.10;99.90;;;;;;5139868;27;20380;-60
2022/12/29 11:06:09;;;;;;;4.40;1.75;;;7.20;99.90;;;;;;5150939;27;20051;-60
2022/12/29 11:08:41;;;;;;;3.28;1.80;;;7.40;99.90;;;;;;5142864;27;20039;-60
2022/12/29 11:11:09;;;;;;;2.45;1.67;;;7.40;99.90;;;;;;5134399;27;20067;-60
2022/12/29 11:14:17;;;;;;;3.67;1.73;;;7.50;99.90;;;;;;5133883;27;20043;-61
2022/12/29 11:16:45;;;;;;;7.85;2.88;;;7.60;99.90;;;;;;5134393;27;20027;-60
2022/12/29 11:19:23;;;;;;;3.10;1.88;;;7.50;99.90;;;;;;5133965;27;20039;-60
2022/12/29 11:21:49;;;;;;;4.18;1.90;;;7.60;99.90;;;;;;5136414;27;20073;-60
2022/12/29 11:24:21;;;;;;;2.30;1.33;;;7.60;99.90;;;;;;5136839;27;20035;-60
2022/12/29 11:26:50;;;;;;;5.00;2.28;;;7.70;99.90;;;;;;5141880;27;20051;-60
2022/12/29 11:29:20;;;;;;;3.25;2.03;;;7.80;99.90;;;;;;5134154;27;20131;-60
2022/12/29 11:31:49;;;;;;;3.35;2.08;;;7.90;99.90;;;;;;5133522;27;20039;-59
2022/12/29 11:34:27;;;;;;;4.38;1.80;;;8.00;99.90;;;;;;5130101;27;20031;-60
2022/12/29 11:37:00;;;;;;;4.40;1.90;;;8.10;99.90;;;;;;5135617;27;20559;-60
2022/12/29 11:39:53;;;;;;;5.90;1.92;;;8.10;99.90;;;;;;5138718;27;20103;-60
2022/12/29 11:42:37;;;;;;;4.57;1.90;;;8.10;99.90;;;;;;5140830;27;20410;-60
2022/12/29 11:45:28;;;;;;;3.70;2.13;;;8.10;99.90;;;;;;5138788;27;20045;-60
2022/12/29 11:48:05;;;;;;;4.25;2.10;;;8.10;99.90;;;;;;5135922;27;20514;-60
2022/12/29 11:50:33;;;;;;;3.53;2.15;;;8.10;99.90;;;;;;5138753;27;20490;-60
2022/12/29 11:53:11;;;;;;;5.50;2.30;;;8.20;99.90;;;;;;5140681;27;20513;-60
2022/12/29 11:55:37;;;;;;;4.13;2.20;;;8.20;99.90;;;;;;5129824;27;20083;-60
2022/12/29 11:58:05;;;;;;;7.70;2.97;;;8.30;99.90;;;;;;5138869;27;20119;-60
2022/12/29 12:00:39;;;;;;;6.38;2.42;;;8.40;99.90;;;;;;5138797;27;20055;-61
2022/12/29 12:03:15;;;;;;;8.45;3.08;;;8.40;99.90;;;;;;5141097;27;20452;-60
2022/12/29 12:05:52;;;;;;;5.78;2.20;;;8.20;99.90;;;;;;5138577;27;20049;-60
2022/12/29 12:08:40;;;;;;;2.50;1.93;;;8.30;99.90;;;;;;5139932;27;20039;-60
2022/12/29 12:11:20;;;;;;;3.33;2.20;;;8.30;99.90;;;;;;5134750;27;20043;-61
2022/12/29 12:14:06;;;;;;;7.22;3.20;;;8.30;99.90;;;;;;5129344;27;20047;-60
2022/12/29 12:17:02;;;;;;;3.58;2.13;;;8.30;99.90;;;;;;5142557;27;20051;-60
2022/12/29 12:19:39;;;;;;;5.35;2.28;;;8.30;99.90;;;;;;5142793;27;20631;-60
2022/12/29 12:22:27;;;;;;;;;;;8.30;99.90;;;;;;5127327;27;20043;-60
2022/12/29 12:25:05;;;;;;;4.53;2.20;;;8.30;99.90;;;;;;5141337;27;19918;-60
2022/12/29 12:27:41;;;;;;;5.35;2.97;;;8.40;99.90;;;;;;5142375;27;20032;-60
2022/12/29 12:30:23;;;;;;;4.43;2.05;;;8.40;99.90;;;;;;5139856;27;20047;-60
2022/12/29 12:32:54;;;;;;;4.75;2.08;;;8.30;99.90;;;;;;5135502;27;20100;-60
2022/12/29 12:35:34;;;;;;;5.95;2.70;;;8.40;99.90;;;;;;5137833;27;20495;-60
2022/12/29 12:38:26;;;;;;;4.38;2.17;;;8.40;99.90;;;;;;5139865;27;20092;-60
2022/12/29 12:40:58;;;;;;;5.57;2.10;;;8.50;99.90;;;;;;5138299;27;20106;-60
2022/12/29 12:43:34;;;;;;;3.85;1.80;;;8.50;99.90;;;;;;5133027;27;20092;-60
2022/12/29 12:46:19;;;;;;;9.32;3.78;;;8.50;99.90;;;;;;5114610;27;20039;-60
2022/12/29 12:49:13;;;;;;;5.45;2.63;;;8.40;99.90;;;;;;5140553;27;20095;-60
2022/12/29 12:51:59;;;;;;;10.50;3.22;;;8.30;99.90;;;;;;5131930;27;20030;-60
2022/12/29 12:54:43;;;;;;;6.47;2.95;;;8.20;99.90;;;;;;5134300;27;20499;-60
2022/12/29 12:57:54;;;;;;;3.75;1.55;;;8.10;99.90;;;;;;5139916;27;20043;-60
2022/12/29 13:00:23;;;;;;;4.45;1.95;;;8.10;99.90;;;;;;5132820;27;20560;-60
2022/12/29 13:03:08;;;;;;;7.57;1.90;;;8.10;99.90;;;;;;5133215;27;20031;-60
2022/12/29 13:06:04;;;;;;;7.10;1.80;;;8.10;99.90;;;;;;5137431;27;20047;-60
2022/12/29 13:09:11;;;;;;;5.75;2.42;;;8.00;99.90;;;;;;5135263;27;20035;-60
2022/12/29 13:11:58;;;;;;;7.60;1.90;;;7.90;99.90;;;;;;5133020;27;20511;-60
2022/12/29 13:15:03;;;;;;;3.95;1.70;;;7.90;99.90;;;;;;5141815;27;20410;-60
2022/12/29 13:17:36;;;;;;;3.60;1.95;;;7.80;99.90;;;;;;5099955;27;20108;-60
2022/12/29 13:20:29;;;;;;;7.53;2.38;;;7.60;99.90;;;;;;5132593;27;20039;-60
2022/12/29 13:23:31;;;;;;;5.80;2.38;;;7.60;99.90;;;;;;5139194;27;20092;-60
2022/12/29 13:26:03;;;;;;;7.47;2.20;;;7.60;99.90;;;;;;5141099;27;20500;-60
2022/12/29 13:29:11;;;;;;;5.82;2.00;;;7.50;99.90;;;;;;5135158;27;20098;-60
2022/12/29 13:32:13;;;;;;;5.15;1.90;;;7.50;99.90;;;;;;5140851;27;20039;-60
2022/12/29 13:34:56;;;;;;;7.25;2.05;;;7.50;99.90;;;;;;5131676;27;20038;-60
2022/12/29 13:37:27;;;;;;;3.83;2.20;;;7.50;99.90;;;;;;5134577;27;20056;-60
2022/12/29 13:40:03;;;;;;;4.30;1.98;;;7.40;99.90;;;;;;5137277;27;20488;-60
2022/12/29 13:42:30;;;;;;;5.50;1.63;;;7.30;99.90;;;;;;5137753;27;20096;-60
2022/12/29 13:45:03;;;;;;;4.35;2.03;;;7.30;99.90;;;;;;5136033;27;20499;-60
2022/12/29 13:47:54;;;;;;;5.45;2.15;;;7.20;99.90;;;;;;5136552;27;20039;-60
2022/12/29 13:50:24;;;;;;;10.23;3.40;;;7.20;99.90;;;;;;5141222;27;20043;-60
2022/12/29 13:53:32;;;;;;;8.25;2.38;;;7.30;99.90;;;;;;5135931;27;20033;-60
2022/12/29 13:56:20;;;;;;;11.13;5.90;;;7.40;99.90;;;;;;5135933;27;20038;-60
2022/12/29 13:59:16;;;;;;;19.13;8.35;;;7.30;99.90;;;;;;5143625;27;20039;-60
2022/12/29 14:02:09;;;;;;;13.95;5.95;;;7.20;99.90;;;;;;5134980;27;20032;-60
2022/12/29 14:04:56;;;;;;;8.80;3.75;;;7.00;99.90;;;;;;5135010;27;20558;-60